createdAt,value
2018-10-11T00:00:43.836Z,15.03
2018-10-11T00:05:47.560Z,17.17
2018-10-11T00:10:51.431Z,15.70
2018-10-11T00:15:55.131Z,15.80
2018-10-11T00:20:58.876Z,15.00
2018-10-11T00:26:02.597Z,17.80
2018-10-11T00:31:06.317Z,17.03
2018-10-11T00:36:10.035Z,19.13
2018-10-11T00:41:13.782Z,18.50
2018-10-11T00:46:17.523Z,18.07
2018-10-11T00:51:21.286Z,19.10
2018-10-11T00:56:24.955Z,16.60
2018-10-11T01:01:28.680Z,17.10
2018-10-11T01:06:32.415Z,16.60
2018-10-11T01:11:36.139Z,18.63
2018-10-11T01:16:40.103Z,15.70
2018-10-11T01:21:43.835Z,16.17
2018-10-11T01:26:47.564Z,18.00
2018-10-11T01:31:51.272Z,16.57
2018-10-11T01:36:55.032Z,17.93
2018-10-11T01:41:58.751Z,16.47
2018-10-11T01:47:02.496Z,19.50
2018-10-11T01:52:06.254Z,19.23
2018-10-11T01:57:10.499Z,17.60
2018-10-11T02:02:14.228Z,18.77
2018-10-11T02:07:17.982Z,19.07
2018-10-11T02:12:21.694Z,20.37
2018-10-11T02:17:25.406Z,20.50
2018-10-11T02:22:29.122Z,19.50
2018-10-11T02:27:32.846Z,19.13
2018-10-11T02:32:36.576Z,19.80
2018-10-11T02:37:40.559Z,18.00
2018-10-11T02:42:44.278Z,18.27
2018-10-11T02:47:48.010Z,17.00
2018-10-11T02:52:51.695Z,20.73
2018-10-11T02:58:06.883Z,16.90
2018-10-11T03:03:13.020Z,19.90
2018-10-11T03:08:19.344Z,21.37
2018-10-11T03:13:23.056Z,18.57
2018-10-11T03:18:26.758Z,17.30
2018-10-11T03:23:30.475Z,20.63
2018-10-11T03:28:34.170Z,18.27
2018-10-11T03:33:37.879Z,19.13
2018-10-11T03:38:41.579Z,15.80
2018-10-11T03:43:45.278Z,14.97
2018-10-11T03:48:49.119Z,21.00
2018-10-11T03:53:52.834Z,17.10
2018-10-11T03:58:56.559Z,20.50
2018-10-11T04:04:00.241Z,19.10
2018-10-11T04:09:04.634Z,17.47
2018-10-11T04:14:08.336Z,19.87
2018-10-11T04:19:13.072Z,17.63
2018-10-11T04:24:16.791Z,17.20
2018-10-11T04:29:20.520Z,19.27
2018-10-11T04:34:24.261Z,15.57
2018-10-11T04:39:27.982Z,16.10
2018-10-11T04:44:34.780Z,18.80
2018-10-11T04:49:38.494Z,20.53
2018-10-11T04:54:42.219Z,18.40
2018-10-11T04:59:45.957Z,16.93
2018-10-11T05:04:49.635Z,19.30
2018-10-11T05:09:53.350Z,18.83
2018-10-11T05:14:57.085Z,19.40
2018-10-11T05:20:00.887Z,17.70
2018-10-11T05:25:04.590Z,19.57
2018-10-11T05:30:08.308Z,20.80
2018-10-11T05:35:12.010Z,19.50
2018-10-11T05:40:15.718Z,17.03
2018-10-11T05:45:22.643Z,16.90
2018-10-11T05:50:40.867Z,16.37
2018-10-11T05:55:45.180Z,22.60
2018-10-11T06:00:49.118Z,19.10
2018-10-11T06:05:52.922Z,19.90
2018-10-11T06:10:56.737Z,22.87
2018-10-11T06:16:00.467Z,18.73
2018-10-11T06:21:04.251Z,20.00
2018-10-11T06:26:07.962Z,17.93
2018-10-11T06:31:11.742Z,20.30
2018-10-11T06:36:15.652Z,19.13
2018-10-11T06:41:19.376Z,17.87
2018-10-11T06:46:23.095Z,16.97
2018-10-11T06:51:26.782Z,18.17
2018-10-11T06:56:30.502Z,18.80
2018-10-11T07:01:34.222Z,20.60
2018-10-11T07:06:37.923Z,20.03
2018-10-11T07:11:41.627Z,17.50
2018-10-11T07:16:45.326Z,20.10
2018-10-11T07:21:49.155Z,17.63
2018-10-11T07:26:52.874Z,18.03
2018-10-11T07:31:56.598Z,19.33
2018-10-11T07:37:00.419Z,17.00
2018-10-11T07:42:04.134Z,19.80
2018-10-11T07:47:08.042Z,18.13
2018-10-11T07:52:11.690Z,15.37
2018-10-11T07:57:15.394Z,19.50
2018-10-11T08:02:19.106Z,17.10
2018-10-11T08:07:22.898Z,20.10
2018-10-11T08:12:26.548Z,17.40
2018-10-11T08:17:31.286Z,18.50
2018-10-11T08:22:34.551Z,21.40
2018-10-11T08:27:38.259Z,16.70
2018-10-11T08:32:42.215Z,18.40
2018-10-11T08:37:45.731Z,18.07
2018-10-11T08:42:49.351Z,18.40
2018-10-11T08:47:53.055Z,17.60
2018-10-11T08:52:56.771Z,16.03
2018-10-11T08:58:00.458Z,17.13
2018-10-11T09:03:04.185Z,15.47
2018-10-11T09:08:07.998Z,17.50
2018-10-11T09:13:11.719Z,15.10
2018-10-11T09:18:15.451Z,16.03
2018-10-11T09:23:19.210Z,16.20
2018-10-11T09:28:22.868Z,15.23
2018-10-11T09:33:26.582Z,16.90
2018-10-11T09:38:30.307Z,15.60
2018-10-11T09:43:34.011Z,15.83
2018-10-11T09:48:37.718Z,15.43
2018-10-11T09:53:41.513Z,17.90
2018-10-11T09:58:45.310Z,13.43
2018-10-11T10:03:49.022Z,13.90
2018-10-11T10:08:52.739Z,13.10
2018-10-11T10:13:56.470Z,16.57
2018-10-11T10:19:00.195Z,14.80
2018-10-11T10:24:03.901Z,16.30
2018-10-11T10:29:07.618Z,14.83
2018-10-11T10:34:11.350Z,13.27
2018-10-11T10:39:15.072Z,16.10
2018-10-11T10:44:18.798Z,13.57
2018-10-11T10:49:22.511Z,15.30
2018-10-11T10:54:28.646Z,14.37
2018-10-11T10:59:32.355Z,14.40
2018-10-11T11:04:36.059Z,12.97
2018-10-11T11:09:39.805Z,15.37
2018-10-11T11:14:43.561Z,13.33
2018-10-11T11:19:47.298Z,13.80
2018-10-11T11:24:51.023Z,14.07
2018-10-11T11:29:54.743Z,13.30
2018-10-11T11:34:58.467Z,13.80
2018-10-11T11:40:02.228Z,13.23
2018-10-11T11:45:05.926Z,15.67
2018-10-11T11:50:09.738Z,14.30
2018-10-11T11:55:13.455Z,13.80
2018-10-11T12:00:17.159Z,14.50
2018-10-11T12:05:20.898Z,13.70
2018-10-11T12:10:24.647Z,13.77
2018-10-11T12:15:29.198Z,13.03
2018-10-11T12:20:34.134Z,14.63
2018-10-11T12:25:37.863Z,13.63
2018-10-11T12:30:41.620Z,12.43
2018-10-11T12:35:45.354Z,12.97
2018-10-11T12:40:49.069Z,11.30
2018-10-11T12:45:52.767Z,14.23
2018-10-11T12:50:56.480Z,13.70
2018-10-11T12:56:00.204Z,12.50
2018-10-11T13:01:04.045Z,14.80
2018-10-11T13:06:07.704Z,11.20
2018-10-11T13:11:11.434Z,12.87
2018-10-11T13:16:15.151Z,10.60
2018-10-11T13:21:18.871Z,12.80
2018-10-11T13:26:22.672Z,12.80
2018-10-11T13:31:26.400Z,12.93
2018-10-11T13:36:30.097Z,12.80
2018-10-11T13:41:33.906Z,11.83
2018-10-11T13:46:37.543Z,12.67
2018-10-11T13:51:41.324Z,14.23
2018-10-11T13:56:48.097Z,13.07
2018-10-11T14:01:49.092Z,12.13
2018-10-11T14:06:52.858Z,12.80
2018-10-11T14:11:56.602Z,12.10
2018-10-11T14:17:00.306Z,12.27
2018-10-11T14:22:04.027Z,12.20
2018-10-11T14:27:07.753Z,11.47
2018-10-11T14:32:11.442Z,10.90
2018-10-11T14:37:15.310Z,10.80
2018-10-11T14:42:18.917Z,11.17
2018-10-11T14:47:22.651Z,12.07
2018-10-11T14:52:26.363Z,10.93
2018-10-11T14:57:30.056Z,10.60
2018-10-11T15:02:33.782Z,11.47
2018-10-11T15:07:37.499Z,10.23
2018-10-11T15:12:41.219Z,11.20
2018-10-11T15:17:44.946Z,8.93
2018-10-11T15:22:48.659Z,10.93
2018-10-11T15:27:52.418Z,10.47
2018-10-11T15:32:56.122Z,10.93
2018-10-11T15:37:59.862Z,11.73
2018-10-11T15:43:03.578Z,9.73
2018-10-11T15:48:07.440Z,10.60
2018-10-11T15:53:11.207Z,10.97
2018-10-11T15:58:14.906Z,10.63
2018-10-11T16:03:18.646Z,9.70
2018-10-11T16:08:22.353Z,9.87
2018-10-11T16:13:26.056Z,10.10
2018-10-11T16:18:29.790Z,11.07
2018-10-11T16:23:33.574Z,10.30
2018-10-11T16:28:37.367Z,9.23
2018-10-11T16:33:41.082Z,9.30
2018-10-11T16:38:44.755Z,9.10
2018-10-11T16:43:48.456Z,9.33
2018-10-11T16:48:52.223Z,10.23
2018-10-11T16:53:55.954Z,9.77
2018-10-11T16:58:59.843Z,9.50
2018-10-11T17:04:03.571Z,9.77
2018-10-11T17:09:08.818Z,8.63
2018-10-11T17:14:12.507Z,10.07
2018-10-11T17:19:16.316Z,10.30
2018-10-11T17:24:20.019Z,10.80
2018-10-11T17:29:23.755Z,9.90
2018-10-11T17:34:27.465Z,10.90
2018-10-11T17:39:31.188Z,9.77
2018-10-11T17:44:34.889Z,10.07
2018-10-11T17:49:38.699Z,10.47
2018-10-11T17:54:46.647Z,8.70
2018-10-11T17:59:50.371Z,10.27
2018-10-11T18:04:54.261Z,9.60
2018-10-11T18:09:57.982Z,12.77
2018-10-11T18:15:01.720Z,9.60
2018-10-11T18:20:05.483Z,11.77
2018-10-11T18:25:09.447Z,9.77
2018-10-11T18:30:13.159Z,11.00
2018-10-11T18:35:16.866Z,12.10
2018-10-11T18:40:20.599Z,10.70
2018-10-11T18:45:24.382Z,11.27
2018-10-11T18:50:28.203Z,11.60
2018-10-11T18:55:31.880Z,12.00
2018-10-11T19:00:35.592Z,11.00
2018-10-11T19:05:39.338Z,10.93
2018-10-11T19:10:43.102Z,10.03
2018-10-11T19:15:46.814Z,11.60
2018-10-11T19:20:50.580Z,10.77
2018-10-11T19:25:54.251Z,9.93
2018-10-11T19:30:58.085Z,10.37
2018-10-11T19:36:01.682Z,10.33
2018-10-11T19:41:05.406Z,9.63
2018-10-11T19:46:09.428Z,9.60
2018-10-11T19:51:13.135Z,10.37
2018-10-11T19:56:16.996Z,10.20
2018-10-11T20:01:20.571Z,10.67
2018-10-11T20:06:24.270Z,10.27
2018-10-11T20:11:28.062Z,11.20
2018-10-11T20:16:31.826Z,11.17
2018-10-11T20:21:35.534Z,10.50
2018-10-11T20:26:39.335Z,11.40
2018-10-11T20:31:43.147Z,10.63
2018-10-11T20:36:46.850Z,9.70
2018-10-11T20:41:50.546Z,11.33
2018-10-11T20:46:54.257Z,12.20
2018-10-11T20:51:57.968Z,10.80
2018-10-11T20:57:01.692Z,10.93
2018-10-11T21:02:05.675Z,11.63
2018-10-11T21:07:09.378Z,9.93
2018-10-11T21:12:13.130Z,12.33
2018-10-11T21:17:16.879Z,11.70
2018-10-11T21:22:20.606Z,13.43
2018-10-11T21:27:24.295Z,11.13
2018-10-11T21:32:28.023Z,10.93
2018-10-11T21:37:31.707Z,12.70
2018-10-11T21:42:35.447Z,12.43
2018-10-11T21:47:39.150Z,10.60
2018-10-11T21:52:42.935Z,10.93
2018-10-11T21:57:46.629Z,10.03
2018-10-11T22:02:50.338Z,12.33
2018-10-11T22:07:54.091Z,10.53
2018-10-11T22:12:57.790Z,13.13
2018-10-11T22:18:01.510Z,11.10
2018-10-11T22:23:05.343Z,13.10
2018-10-11T22:28:09.199Z,10.87
2018-10-11T22:33:12.970Z,11.47
2018-10-11T22:38:17.535Z,10.77
2018-10-11T22:43:21.223Z,12.77
2018-10-11T22:48:24.959Z,10.43
2018-10-11T22:53:28.652Z,12.43
2018-10-11T22:58:32.390Z,11.53
2018-10-11T23:03:36.091Z,11.83
2018-10-11T23:08:39.855Z,12.13
2018-10-11T23:13:43.550Z,11.87
2018-10-11T23:18:47.250Z,11.17
2018-10-11T23:23:50.971Z,11.50
2018-10-11T23:28:54.678Z,12.07
2018-10-11T23:33:58.369Z,14.57
2018-10-11T23:39:02.070Z,10.20
2018-10-11T23:44:05.790Z,11.37
2018-10-11T23:49:09.526Z,12.90
2018-10-11T23:54:13.254Z,14.00
2018-10-11T23:59:16.968Z,12.40
